Time;durP1;ratioP1;P1;durP2;ratioP2;P2;SDS_P1;SDS_P2;PMS_P1;PMS_P2;Temp;Humidity;BMP_temperature;BMP_pressure;BME280_temperature;BME280_humidity;BME280_pressure;Samples;Min_cycle;Max_cycle;Signal;HPM_P1;HPM_P2
2021/01/18 00:01:37;;;;;;;5.90;5.30;;;1.80;99.90;;;;;;6211528;23;20399;-96
2021/01/18 00:04:03;;;;;;;5.73;5.13;;;1.70;99.90;;;;;;6191757;23;20416;-95
2021/01/18 00:14:15;;;;;;;6.10;5.30;;;1.80;99.90;;;;;;6162623;23;20446;-96
2021/01/18 00:16:41;;;;;;;6.60;5.40;;;1.80;99.90;;;;;;6203884;23;20391;-94
2021/01/18 00:32:15;;;;;;;7.50;4.33;;;1.80;99.90;;;;;;6125124;23;20352;-92
2021/01/18 00:45:04;;;;;;;4.77;3.73;;;1.70;99.90;;;;;;6212192;22;20445;-95
2021/01/18 00:47:35;;;;;;;4.77;3.97;;;1.80;99.90;;;;;;6198189;23;20395;-93
2021/01/18 00:50:01;;;;;;;4.23;3.83;;;1.80;99.90;;;;;;6192112;23;20403;-95
2021/01/18 00:52:29;;;;;;;4.80;4.00;;;1.70;99.90;;;;;;6213153;23;20413;-96
2021/01/18 00:54:57;;;;;;;5.70;4.53;;;1.70;99.90;;;;;;6143016;22;20442;-92
2021/01/18 04:45:36;;;;;;;5.10;3.20;;;1.60;99.90;;;;;;6166884;23;20507;-95
2021/01/18 04:48:21;;;;;;;4.63;3.80;;;1.60;99.90;;;;;;6182135;23;20443;-96
2021/01/18 04:56:17;;;;;;;5.33;4.23;;;1.50;99.90;;;;;;6155730;23;20445;-88
2021/01/18 04:58:48;;;;;;;4.97;3.50;;;1.50;99.90;;;;;;6128079;23;20499;-96
2021/01/18 05:01:31;;;;;;;5.00;4.10;;;1.50;99.90;;;;;;6132715;23;20440;-96
2021/01/18 05:17:05;;;;;;;6.00;4.30;;;1.60;99.90;;;;;;6135411;23;20700;-95
2021/01/18 05:19:35;;;;;;;9.07;4.63;;;1.60;99.90;;;;;;6099066;23;20469;-95
2021/01/18 05:29:55;;;;;;;6.60;4.07;;;1.60;99.90;;;;;;6152686;23;20755;-96
2021/01/18 05:32:23;;;;;;;6.80;4.23;;;1.70;99.90;;;;;;6149615;23;20405;-89
2021/01/18 05:34:48;;;;;;;6.47;4.53;;;1.70;99.90;;;;;;6139262;23;20404;-92
2021/01/18 05:37:16;;;;;;;7.47;4.60;;;1.60;99.90;;;;;;6147837;23;20389;-94
2021/01/18 05:39:42;;;;;;;6.10;4.30;;;1.60;99.90;;;;;;6147316;23;20594;-92
2021/01/18 05:42:32;;;;;;;6.70;4.40;;;1.60;99.90;;;;;;6151210;23;20507;-92
2021/01/18 05:44:58;;;;;;;6.30;4.20;;;1.60;99.90;;;;;;6130677;23;20395;-93
2021/01/18 05:47:24;;;;;;;5.63;4.03;;;1.60;99.90;;;;;;6149112;23;20770;-94
2021/01/18 05:49:50;;;;;;;7.43;4.70;;;1.60;99.90;;;;;;6147274;23;20203;-92
2021/01/18 05:52:33;;;;;;;7.20;4.40;;;1.60;99.90;;;;;;6147828;23;20558;-93
2021/01/18 05:55:23;;;;;;;4.00;3.60;;;1.60;99.90;;;;;;6146896;23;20400;-94
2021/01/18 05:58:03;;;;;;;9.43;5.20;;;1.50;99.90;;;;;;6166517;23;20447;-94
2021/01/18 06:00:37;;;;;;;4.20;3.80;;;1.50;99.90;;;;;;6129489;23;20401;-91
2021/01/18 06:03:08;;;;;;;6.23;5.00;;;1.50;99.90;;;;;;6147045;23;20393;-91
2021/01/18 06:05:38;;;;;;;8.80;5.07;;;1.50;99.90;;;;;;6146881;23;20407;-93
2021/01/18 06:08:14;;;;;;;7.03;4.70;;;1.50;99.90;;;;;;6147767;23;20432;-92
2021/01/18 06:10:49;;;;;;;8.40;4.47;;;1.40;99.90;;;;;;6125754;23;20408;-93
2021/01/18 06:13:26;;;;;;;6.57;4.37;;;1.40;99.90;;;;;;6148175;23;20396;-85
2021/01/18 06:16:11;;;;;;;8.80;5.67;;;1.40;99.90;;;;;;6145616;23;20778;-87
2021/01/18 06:18:38;;;;;;;9.53;4.70;;;1.40;99.90;;;;;;6120036;23;20396;-89
2021/01/18 06:21:07;;;;;;;6.20;4.70;;;1.40;99.90;;;;;;6143297;23;20832;-89
2021/01/18 06:23:33;;;;;;;7.90;4.47;;;1.40;99.90;;;;;;6143316;23;20400;-89
2021/01/18 06:26:00;;;;;;;8.33;5.17;;;1.40;99.90;;;;;;6119767;23;20412;-89
2021/01/18 06:28:32;;;;;;;77.43;61.33;;;1.50;99.90;;;;;;6118471;23;20447;-88
2021/01/18 06:31:05;;;;;;;6.60;5.23;;;1.50;99.90;;;;;;6118225;23;20413;-88
2021/01/18 06:33:37;;;;;;;15.50;7.20;;;1.60;99.90;;;;;;6143020;23;20866;-89
2021/01/18 06:36:29;;;;;;;17.77;9.40;;;1.60;99.90;;;;;;6145006;23;20451;-88
2021/01/18 06:39:18;;;;;;;9.77;5.23;;;1.60;99.90;;;;;;6142919;23;20411;-88
2021/01/18 06:41:55;;;;;;;7.47;5.30;;;1.60;99.90;;;;;;6144181;23;20389;-88
2021/01/18 06:44:35;;;;;;;9.20;5.30;;;1.50;99.90;;;;;;6143765;23;20447;-87
2021/01/18 06:47:41;;;;;;;9.53;5.20;;;1.50;99.90;;;;;;6143831;23;20400;-87
2021/01/18 06:50:10;;;;;;;6.83;4.63;;;1.50;99.90;;;;;;6139471;23;20408;-87
2021/01/18 06:52:46;;;;;;;11.13;5.50;;;1.60;99.90;;;;;;6136584;23;20448;-88
2021/01/18 06:55:24;;;;;;;8.77;4.83;;;1.60;99.90;;;;;;6142673;23;20883;-88
2021/01/18 06:58:03;;;;;;;7.40;5.00;;;1.50;99.90;;;;;;6143877;23;20456;-86
2021/01/18 07:00:31;;;;;;;11.30;4.70;;;1.60;99.90;;;;;;6145091;23;20400;-87
2021/01/18 07:03:18;;;;;;;14.03;5.30;;;1.50;99.90;;;;;;6143941;23;20889;-88
2021/01/18 07:06:02;;;;;;;6.87;4.60;;;1.60;99.90;;;;;;6117645;23;20447;-87
2021/01/18 07:08:43;;;;;;;6.83;4.70;;;1.60;99.90;;;;;;6142358;23;20531;-87
2021/01/18 07:11:29;;;;;;;7.97;5.33;;;1.60;99.90;;;;;;6143014;23;20449;-87
2021/01/18 07:13:55;;;;;;;8.10;4.87;;;1.60;99.90;;;;;;6142144;23;20396;-88
2021/01/18 07:16:22;;;;;;;7.10;4.50;;;1.60;99.90;;;;;;6142223;23;20164;-87
2021/01/18 07:19:20;;;;;;;9.40;4.67;;;1.60;99.90;;;;;;6118173;23;20483;-87
2021/01/18 07:22:11;;;;;;;7.70;4.90;;;1.60;99.90;;;;;;6142241;23;20862;-87
2021/01/18 07:24:41;;;;;;;7.33;5.10;;;1.60;99.90;;;;;;6142481;23;20484;-88
2021/01/18 07:27:11;;;;;;;6.70;5.27;;;1.70;99.90;;;;;;6142688;23;20423;-88
2021/01/18 07:29:37;;;;;;;6.90;4.73;;;1.70;99.90;;;;;;6142136;23;20502;-88
2021/01/18 07:32:08;;;;;;;5.63;4.60;;;1.70;99.90;;;;;;6141447;23;20400;-88
2021/01/18 07:34:44;;;;;;;6.33;5.20;;;1.80;99.90;;;;;;6142623;23;21029;-88
2021/01/18 07:37:33;;;;;;;7.17;5.03;;;1.80;99.90;;;;;;6118211;23;20438;-88
2021/01/18 07:40:14;;;;;;;10.00;5.80;;;1.90;99.90;;;;;;6117324;23;20392;-88
2021/01/18 07:42:41;;;;;;;7.77;5.43;;;1.90;99.90;;;;;;6143502;23;20674;-91
2021/01/18 07:45:11;;;;;;;10.53;5.90;;;1.90;99.90;;;;;;6144070;23;20397;-91
2021/01/18 07:47:56;;;;;;;8.50;5.60;;;2.00;99.90;;;;;;6146793;23;20397;-92
2021/01/18 07:50:48;;;;;;;8.33;4.67;;;2.10;99.90;;;;;;6126032;23;20404;-93
2021/01/18 07:53:15;;;;;;;8.43;4.70;;;2.10;99.90;;;;;;6146874;23;20396;-90
2021/01/18 07:55:41;;;;;;;11.57;4.50;;;2.00;99.90;;;;;;6145912;23;20408;-92
2021/01/18 07:58:13;;;;;;;7.00;4.90;;;2.10;99.90;;;;;;6148117;23;20388;-96
2021/01/18 08:00:39;;;;;;;7.30;4.10;;;2.20;99.90;;;;;;6126056;23;20672;-96
2021/01/18 08:03:07;;;;;;;5.27;4.23;;;2.20;99.90;;;;;;6147202;23;20399;-93
2021/01/18 08:05:41;;;;;;;10.23;4.70;;;2.20;99.90;;;;;;6122359;23;20385;-92
2021/01/18 08:08:12;;;;;;;8.07;4.30;;;2.20;99.90;;;;;;6150924;23;20853;-96
2021/01/18 08:11:02;;;;;;;5.90;4.10;;;2.20;99.90;;;;;;6151202;23;20405;-95
2021/01/18 08:13:53;;;;;;;7.07;3.93;;;2.20;99.90;;;;;;6147349;23;20794;-95
2021/01/18 08:16:25;;;;;;;8.27;4.60;;;2.10;99.90;;;;;;6147420;23;20475;-95
2021/01/18 08:19:01;;;;;;;6.63;4.27;;;2.20;99.90;;;;;;6123246;23;20407;-95
2021/01/18 08:21:33;;;;;;;5.87;4.23;;;2.20;99.90;;;;;;6147085;23;20404;-94
2021/01/18 08:24:12;;;;;;;4.50;4.10;;;2.30;99.90;;;;;;6123627;23;20890;-95
2021/01/18 08:26:49;;;;;;;8.53;4.90;;;2.30;99.90;;;;;;6147267;23;20389;-95
2021/01/18 08:29:34;;;;;;;6.90;4.63;;;2.30;99.90;;;;;;6120835;23;20539;-93
2021/01/18 08:32:31;;;;;;;7.03;5.47;;;2.40;99.90;;;;;;6121028;23;20459;-93
2021/01/18 08:35:03;;;;;;;7.70;5.10;;;2.30;99.90;;;;;;6148986;23;20407;-94
2021/01/18 08:37:30;;;;;;;7.00;4.90;;;2.40;99.90;;;;;;6146792;23;20397;-92
2021/01/18 08:39:57;;;;;;;6.93;4.23;;;2.50;99.90;;;;;;6148103;23;20467;-95
2021/01/18 08:42:34;;;;;;;5.10;4.10;;;2.50;99.90;;;;;;6124347;23;20435;-93
2021/01/18 08:45:04;;;;;;;7.03;4.00;;;2.60;99.90;;;;;;6148076;23;20407;-93
2021/01/18 08:47:36;;;;;;;8.80;4.40;;;2.60;99.90;;;;;;6147689;23;20843;-95
2021/01/18 08:50:20;;;;;;;11.13;4.17;;;2.70;99.90;;;;;;6123126;23;20419;-95
2021/01/18 08:52:59;;;;;;;6.00;3.80;;;2.70;99.90;;;;;;6126389;23;20396;-96
2021/01/18 08:55:28;;;;;;;5.77;4.37;;;2.80;99.90;;;;;;6155606;23;20892;-94
2021/01/18 09:06:05;;;;;;;5.20;3.90;;;2.70;99.90;;;;;;6191173;23;20550;-94
2021/01/18 09:08:31;;;;;;;7.73;4.10;;;2.70;99.90;;;;;;6162321;23;20437;-95
2021/01/18 09:11:03;;;;;;;8.00;5.57;;;2.80;99.90;;;;;;6184027;23;20400;-93
2021/01/18 09:13:31;;;;;;;6.40;3.87;;;2.90;99.90;;;;;;6185483;23;20410;-95
2021/01/18 09:15:58;;;;;;;6.50;3.73;;;2.90;99.90;;;;;;6168550;23;20391;-95
2021/01/18 09:18:25;;;;;;;5.60;3.77;;;2.80;99.90;;;;;;6171249;23;20407;-96
2021/01/18 09:20:53;;;;;;;4.90;3.77;;;2.80;99.90;;;;;;6163467;23;20392;-95
2021/01/18 09:23:19;;;;;;;5.53;3.87;;;2.90;99.90;;;;;;6154835;23;20848;-95
2021/01/18 09:25:45;;;;;;;6.80;4.20;;;3.00;99.90;;;;;;6155186;23;20395;-94
2021/01/18 09:28:14;;;;;;;5.33;3.70;;;3.00;99.90;;;;;;6158345;23;20459;-96
2021/01/18 09:30:42;;;;;;;5.30;3.97;;;3.00;99.90;;;;;;6168682;23;20404;-96
2021/01/18 09:33:10;;;;;;;4.87;4.10;;;3.00;99.90;;;;;;6174353;23;20403;-96
2021/01/18 09:35:39;;;;;;;5.37;3.67;;;2.90;99.90;;;;;;6170904;23;20404;-96
2021/01/18 09:38:10;;;;;;;4.67;4.00;;;2.80;99.90;;;;;;6176940;23;20399;-93
2021/01/18 09:43:18;;;;;;;8.17;4.70;;;2.90;99.90;;;;;;6189628;23;20431;-94
2021/01/18 09:48:26;;;;;;;4.30;3.90;;;3.00;99.90;;;;;;6140302;23;20435;-96
2021/01/18 09:51:10;;;;;;;10.03;4.00;;;3.00;99.90;;;;;;6176829;23;20745;-96
2021/01/18 09:53:36;;;;;;;4.47;3.43;;;3.00;99.90;;;;;;6174260;23;20411;-95
2021/01/18 09:56:13;;;;;;;3.83;3.43;;;3.10;99.90;;;;;;6166093;23;20406;-95
2021/01/18 09:58:44;;;;;;;5.87;4.40;;;3.00;99.90;;;;;;6173750;23;20482;-96
2021/01/18 10:01:15;;;;;;;7.30;3.90;;;3.10;99.90;;;;;;6179566;23;20412;-96
2021/01/18 10:04:02;;;;;;;3.83;3.27;;;3.10;99.90;;;;;;6181609;23;20404;-95
2021/01/18 10:06:30;;;;;;;9.17;4.23;;;3.10;99.90;;;;;;6185156;23;20410;-96
2021/01/18 10:12:01;;;;;;;6.73;4.40;;;3.10;99.90;;;;;;6198541;23;20484;-95
2021/01/18 10:14:28;;;;;;;7.10;4.90;;;3.20;99.90;;;;;;6177374;23;20418;-96
2021/01/18 10:22:14;;;;;;;4.80;4.30;;;3.30;99.90;;;;;;6183048;23;20444;-96
2021/01/18 10:24:56;;;;;;;5.43;4.60;;;3.40;99.90;;;;;;6173369;23;20456;-95
2021/01/18 10:27:28;;;;;;;8.30;4.10;;;3.70;99.90;;;;;;6181988;23;20831;-96
2021/01/18 10:30:08;;;;;;;6.37;4.47;;;3.70;99.90;;;;;;6165143;23;20435;-96
2021/01/18 10:32:41;;;;;;;6.00;4.20;;;3.90;99.90;;;;;;6152145;23;20474;-96
2021/01/18 10:35:29;;;;;;;4.83;3.37;;;3.80;99.90;;;;;;6157012;23;20428;-92
2021/01/18 10:38:19;;;;;;;4.63;3.70;;;3.90;99.90;;;;;;6151889;23;20483;-94
2021/01/18 10:41:00;;;;;;;3.93;3.43;;;3.80;99.90;;;;;;6152586;23;20451;-90
2021/01/18 10:43:28;;;;;;;6.30;3.60;;;3.90;99.90;;;;;;6177683;23;20934;-91
2021/01/18 10:46:05;;;;;;;5.47;3.30;;;3.80;99.90;;;;;;6151514;23;20425;-95
2021/01/18 10:48:33;;;;;;;8.00;3.90;;;3.80;99.90;;;;;;6153278;23;20943;-93
2021/01/18 10:51:03;;;;;;;34.60;29.33;;;3.90;99.90;;;;;;6154234;23;20697;-92
2021/01/18 10:53:33;;;;;;;14.17;11.80;;;4.00;99.90;;;;;;6126453;23;20401;-94
2021/01/18 10:56:16;;;;;;;6.47;3.70;;;3.90;99.90;;;;;;6181698;23;20517;-95
2021/01/18 11:01:17;;;;;;;6.27;4.90;;;4.00;99.90;;;;;;6184679;23;20466;-96
2021/01/18 11:03:44;;;;;;;7.03;3.70;;;4.10;99.90;;;;;;6168191;23;20500;-93
2021/01/18 11:11:25;;;;;;;6.27;4.60;;;4.20;99.90;;;;;;6133937;23;20418;-91
2021/01/18 11:21:34;;;;;;;7.73;5.20;;;3.70;99.90;;;;;;6160899;23;20456;-93
2021/01/18 11:26:36;;;;;;;6.60;5.20;;;4.00;99.90;;;;;;6159396;23;20460;-92
2021/01/18 11:29:02;;;;;;;4.93;4.43;;;4.20;99.90;;;;;;6134295;23;20444;-95
2021/01/18 11:34:09;;;;;;;7.30;4.33;;;4.30;99.90;;;;;;6138274;23;20481;-96
2021/01/18 11:41:49;;;;;;;7.00;5.33;;;4.00;99.90;;;;;;6162849;23;20448;-94
2021/01/18 11:49:27;;;;;;;7.13;4.17;;;4.20;99.90;;;;;;6140270;23;20464;-96
2021/01/18 11:52:00;;;;;;;6.53;4.80;;;4.30;99.90;;;;;;6166366;23;20403;-95
2021/01/18 11:54:26;;;;;;;8.13;4.80;;;4.50;99.90;;;;;;6187785;23;20404;-95
2021/01/18 11:56:51;;;;;;;4.43;3.97;;;4.70;99.90;;;;;;6163929;23;20729;-94
2021/01/18 11:59:17;;;;;;;3.90;3.33;;;4.70;99.90;;;;;;6157252;23;20505;-95
2021/01/18 12:01:43;;;;;;;5.30;3.80;;;4.50;99.90;;;;;;6159755;23;20152;-94
2021/01/18 12:04:11;;;;;;;3.33;3.00;;;4.30;99.90;;;;;;6156088;23;20242;-96
2021/01/18 12:06:38;;;;;;;5.47;4.20;;;4.40;99.90;;;;;;6156058;23;20407;-96
2021/01/18 12:09:06;;;;;;;7.67;4.77;;;4.40;99.90;;;;;;6154538;23;20446;-94
2021/01/18 12:11:39;;;;;;;6.13;4.60;;;4.50;99.90;;;;;;6152584;23;20391;-92
2021/01/18 12:14:06;;;;;;;5.80;5.10;;;4.60;99.90;;;;;;6152904;23;20401;-93
2021/01/18 12:16:31;;;;;;;5.70;4.17;;;4.70;99.90;;;;;;6155110;23;20832;-95
2021/01/18 12:18:57;;;;;;;7.00;4.60;;;4.40;99.90;;;;;;6157578;23;20394;-95
2021/01/18 12:21:27;;;;;;;6.87;4.83;;;4.30;99.90;;;;;;6155243;23;20164;-94
2021/01/18 12:23:52;;;;;;;5.20;4.63;;;4.30;99.90;;;;;;6156263;23;20191;-94
2021/01/18 12:26:19;;;;;;;5.37;4.33;;;4.30;99.90;;;;;;6162445;23;20408;-95
2021/01/18 12:28:48;;;;;;;5.50;3.70;;;4.30;99.90;;;;;;6159055;23;20570;-94
2021/01/18 12:31:15;;;;;;;8.07;4.40;;;4.20;99.90;;;;;;6154227;23;20396;-93
2021/01/18 12:33:43;;;;;;;4.97;4.30;;;4.00;99.90;;;;;;6155442;23;20396;-94
2021/01/18 12:36:10;;;;;;;6.93;4.23;;;4.10;99.90;;;;;;6161966;23;20399;-96
2021/01/18 12:44:19;;;;;;;3.87;3.33;;;4.10;99.90;;;;;;6154346;23;20457;-92
2021/01/18 12:54:31;;;;;;;7.67;4.50;;;3.90;99.90;;;;;;6130775;23;20407;-90
2021/01/18 12:56:59;;;;;;;5.47;4.20;;;3.90;99.90;;;;;;6131044;23;21553;-87
2021/01/18 12:59:25;;;;;;;7.00;4.83;;;4.00;99.90;;;;;;6139243;23;20236;-96
2021/01/18 13:07:03;;;;;;;5.77;4.57;;;4.00;99.90;;;;;;6182533;23;20469;-95
2021/01/18 13:12:03;;;;;;;4.97;4.27;;;4.50;99.90;;;;;;6129874;23;20450;-95
2021/01/18 13:14:29;;;;;;;9.50;4.83;;;4.50;99.90;;;;;;6173473;23;20415;-93
2021/01/18 13:16:58;;;;;;;5.10;4.60;;;4.50;99.90;;;;;;6163069;23;20434;-92
2021/01/18 13:19:25;;;;;;;10.97;8.47;;;4.70;99.90;;;;;;6163111;23;20169;-92
2021/01/18 13:21:54;;;;;;;5.50;4.47;;;4.70;99.90;;;;;;6151753;23;20431;-91
2021/01/18 13:24:22;;;;;;;8.20;4.50;;;4.80;99.90;;;;;;6151208;23;20392;-95
2021/01/18 13:26:51;;;;;;;8.10;4.80;;;5.10;99.90;;;;;;6176686;23;20409;-96
2021/01/18 13:31:52;;;;;;;6.33;4.67;;;4.80;99.90;;;;;;6101664;23;20433;-92
2021/01/18 13:34:19;;;;;;;6.60;5.30;;;4.70;99.90;;;;;;6077771;23;20826;-93
2021/01/18 13:37:01;;;;;;;7.80;4.70;;;4.70;99.90;;;;;;6087155;23;20167;-95
2021/01/18 13:44:40;;;;;;;6.50;5.90;;;4.70;99.90;;;;;;6186555;23;20788;-95
2021/01/18 13:47:17;;;;;;;6.50;4.20;;;4.80;99.90;;;;;;6171085;23;20398;-95
2021/01/18 13:58:07;;;;;;;6.20;4.60;;;4.70;99.90;;;;;;6190255;23;20470;-94
2021/01/18 14:08:20;;;;;;;8.40;4.90;;;4.00;99.90;;;;;;6188708;23;20453;-94
2021/01/18 14:16:25;;;;;;;7.13;5.57;;;4.00;99.90;;;;;;6200706;23;20446;-95
2021/01/18 14:18:50;;;;;;;5.90;4.47;;;4.00;99.90;;;;;;6156980;23;20439;-95
2021/01/18 14:21:16;;;;;;;8.73;4.90;;;4.10;99.90;;;;;;6175727;23;20407;-96
2021/01/18 14:23:42;;;;;;;6.33;4.87;;;4.00;99.90;;;;;;6154848;23;20400;-93
2021/01/18 14:52:46;;;;;;;9.43;5.23;;;3.60;99.90;;;;;;6138604;23;20446;-96
2021/01/18 14:55:16;;;;;;;9.57;5.77;;;3.50;99.90;;;;;;6147346;23;20554;-96
2021/01/18 14:57:45;;;;;;;6.87;5.63;;;3.50;99.90;;;;;;6164062;23;20441;-96
2021/01/18 15:05:13;;;;;;;5.27;4.00;;;3.40;99.90;;;;;;6177835;23;20798;-93
2021/01/18 15:07:45;;;;;;;5.70;4.40;;;3.40;99.90;;;;;;6155178;23;20407;-92
2021/01/18 15:10:16;;;;;;;4.97;3.90;;;3.30;99.90;;;;;;6152250;23;20416;-96
2021/01/18 15:13:13;;;;;;;9.50;5.10;;;3.20;99.90;;;;;;6163937;23;20417;-95
2021/01/18 15:15:40;;;;;;;5.90;4.27;;;3.20;99.90;;;;;;6164122;23;20404;-96
2021/01/18 15:18:07;;;;;;;5.53;4.30;;;3.10;99.90;;;;;;6160824;23;20495;-95
2021/01/18 15:20:32;;;;;;;4.83;4.13;;;3.10;99.90;;;;;;6151752;23;20503;-94
2021/01/18 15:23:14;;;;;;;3.60;3.03;;;3.20;99.90;;;;;;6157010;23;20995;-96
2021/01/18 15:25:41;;;;;;;5.23;3.93;;;3.10;99.90;;;;;;6155969;23;20176;-96
2021/01/18 15:28:06;;;;;;;5.00;3.47;;;3.00;99.90;;;;;;6154977;23;20747;-96
2021/01/18 15:30:32;;;;;;;8.37;4.57;;;3.00;99.90;;;;;;6156734;23;20432;-96
2021/01/18 15:32:58;;;;;;;7.90;4.10;;;3.00;99.90;;;;;;6134439;23;21004;-95
2021/01/18 15:35:25;;;;;;;5.67;4.10;;;3.00;99.90;;;;;;6156932;23;20721;-96
2021/01/18 15:40:26;;;;;;;5.03;3.20;;;3.00;99.90;;;;;;6183926;23;20486;-92
2021/01/18 15:42:52;;;;;;;3.60;3.30;;;3.00;99.90;;;;;;6146618;23;20487;-94
2021/01/18 15:45:18;;;;;;;8.33;3.90;;;2.90;99.90;;;;;;6177972;23;20483;-96
2021/01/18 15:47:43;;;;;;;3.83;3.50;;;2.90;99.90;;;;;;6154143;23;20595;-94
2021/01/18 15:50:09;;;;;;;4.00;2.93;;;2.90;99.90;;;;;;6166885;23;20200;-93
2021/01/18 15:52:36;;;;;;;5.30;3.60;;;2.80;99.90;;;;;;6154085;23;20522;-92
2021/01/18 15:55:02;;;;;;;4.00;3.30;;;2.80;99.90;;;;;;6147974;23;20414;-91
2021/01/18 15:57:28;;;;;;;4.97;3.80;;;2.80;99.90;;;;;;6143464;23;20391;-92
2021/01/18 15:59:56;;;;;;;5.10;3.30;;;2.80;99.90;;;;;;6154597;23;20395;-96
2021/01/18 16:02:23;;;;;;;6.13;4.43;;;2.80;99.90;;;;;;6151553;23;20450;-96
2021/01/18 16:04:48;;;;;;;13.47;5.97;;;2.80;99.90;;;;;;6156091;23;20403;-94
2021/01/18 16:07:15;;;;;;;7.60;5.27;;;2.80;99.90;;;;;;6155977;23;20488;-95
2021/01/18 16:09:41;;;;;;;5.73;4.73;;;2.80;99.90;;;;;;6166808;23;20223;-95
2021/01/18 16:12:12;;;;;;;5.10;4.60;;;2.80;99.90;;;;;;6154525;23;20462;-94
2021/01/18 16:15:13;;;;;;;6.50;5.10;;;2.80;99.90;;;;;;6151670;23;20171;-95
2021/01/18 16:17:45;;;;;;;5.43;4.10;;;2.70;99.90;;;;;;6157388;23;20412;-95
2021/01/18 16:20:12;;;;;;;6.60;4.10;;;2.70;99.90;;;;;;6152838;23;20396;-95
2021/01/18 16:22:39;;;;;;;6.80;4.37;;;2.70;99.90;;;;;;6154208;23;20777;-89
2021/01/18 16:25:08;;;;;;;6.47;4.73;;;2.70;99.90;;;;;;6156349;23;20439;-94
2021/01/18 16:27:40;;;;;;;8.27;5.80;;;2.60;99.90;;;;;;6180389;23;20418;-93
2021/01/18 16:30:11;;;;;;;8.13;6.03;;;2.60;99.90;;;;;;6151150;23;20448;-92
2021/01/18 16:32:42;;;;;;;7.60;6.10;;;2.60;99.90;;;;;;6157168;23;20399;-95
2021/01/18 16:35:14;;;;;;;7.93;7.13;;;2.60;99.90;;;;;;6159980;23;20462;-95
2021/01/18 16:37:45;;;;;;;6.90;5.00;;;2.60;99.90;;;;;;6150605;23;20400;-90
2021/01/18 16:40:17;;;;;;;8.23;4.63;;;2.60;99.90;;;;;;6143301;23;20785;-88
2021/01/18 16:42:45;;;;;;;7.53;5.47;;;2.60;99.90;;;;;;6151677;23;20473;-91
2021/01/18 16:45:13;;;;;;;6.60;5.30;;;2.60;99.90;;;;;;6147978;23;20416;-91
2021/01/18 16:47:44;;;;;;;7.73;5.97;;;2.60;99.90;;;;;;6147302;23;20399;-90
2021/01/18 16:50:14;;;;;;;7.30;6.13;;;2.50;99.90;;;;;;6147230;23;20526;-92
2021/01/18 17:13:12;;;;;;;7.27;3.33;;;2.70;99.90;;;;;;6179266;23;20402;-91
2021/01/18 17:44:07;;;;;;;6.53;4.77;;;2.60;99.90;;;;;;6174139;23;20444;-81
2021/01/18 17:49:55;;;;;;;3.77;3.47;;;2.50;99.90;;;;;;6185406;23;20446;-81
2021/01/18 17:55:42;;;;;;;5.37;3.87;;;2.50;99.90;;;;;;6185547;23;20171;-81
2021/01/18 18:01:31;;;;;;;6.50;4.93;;;2.50;99.90;;;;;;6185550;23;20163;-88
2021/01/18 18:04:00;;;;;;;5.13;4.53;;;2.50;99.90;;;;;;6140518;23;20451;-94
2021/01/18 18:06:45;;;;;;;9.00;4.07;;;2.50;99.90;;;;;;6169397;23;20486;-93
2021/01/18 18:09:11;;;;;;;6.10;4.90;;;2.50;99.90;;;;;;6142870;23;20407;-92
2021/01/18 18:11:38;;;;;;;6.33;4.97;;;2.50;99.90;;;;;;6161463;23;20174;-91
2021/01/18 18:14:05;;;;;;;5.50;4.27;;;2.40;99.90;;;;;;6119859;23;20219;-92
2021/01/18 18:16:31;;;;;;;4.87;4.30;;;2.50;99.90;;;;;;6143630;23;20534;-93
2021/01/18 18:18:56;;;;;;;6.63;4.20;;;2.40;99.90;;;;;;6147062;23;20435;-94
2021/01/18 18:21:25;;;;;;;7.13;4.60;;;2.40;99.90;;;;;;6145035;23;20207;-92
2021/01/18 18:23:52;;;;;;;7.53;4.50;;;2.40;99.90;;;;;;6146703;23;20761;-93
2021/01/18 18:26:43;;;;;;;6.90;5.20;;;2.40;99.90;;;;;;6146288;23;20399;-92
2021/01/18 18:29:10;;;;;;;11.73;7.33;;;2.30;99.90;;;;;;6142081;23;20469;-93
2021/01/18 18:31:46;;;;;;;13.60;7.77;;;2.30;99.90;;;;;;6144904;23;20399;-92
2021/01/18 18:34:25;;;;;;;9.53;6.50;;;2.30;99.90;;;;;;6143239;23;20446;-92
2021/01/18 18:36:56;;;;;;;15.40;12.67;;;2.30;99.90;;;;;;6143331;23;20558;-90
2021/01/18 18:39:23;;;;;;;7.70;5.27;;;2.30;99.90;;;;;;6140783;23;20541;-88
2021/01/18 18:41:53;;;;;;;8.20;5.90;;;2.30;99.90;;;;;;6154812;23;20465;-89
2021/01/18 18:44:20;;;;;;;9.10;5.87;;;2.20;99.90;;;;;;6168502;23;20474;-89
2021/01/18 18:46:46;;;;;;;7.90;5.90;;;2.20;99.90;;;;;;6139014;23;20398;-88
2021/01/18 18:49:13;;;;;;;9.20;6.20;;;2.20;99.90;;;;;;6143497;23;20395;-92
2021/01/18 18:51:42;;;;;;;9.30;5.77;;;2.20;99.90;;;;;;6144263;23;20399;-92
2021/01/18 18:54:09;;;;;;;9.60;8.60;;;2.20;99.90;;;;;;6147088;23;20403;-94
2021/01/18 18:56:42;;;;;;;7.80;6.10;;;2.20;99.90;;;;;;6145231;23;20475;-94
2021/01/18 18:59:07;;;;;;;11.90;6.00;;;2.20;99.90;;;;;;6146375;23;20467;-91
2021/01/18 19:01:33;;;;;;;10.93;8.07;;;2.20;99.90;;;;;;6145562;23;20399;-92
2021/01/18 19:03:59;;;;;;;9.37;8.43;;;2.20;99.90;;;;;;6145111;23;20483;-90
2021/01/18 19:06:24;;;;;;;8.83;6.70;;;2.20;99.90;;;;;;6143699;23;20172;-88
2021/01/18 19:08:51;;;;;;;9.73;7.33;;;2.30;99.90;;;;;;6142747;23;20689;-89
2021/01/18 19:11:24;;;;;;;8.57;6.23;;;2.30;99.90;;;;;;6143829;23;20251;-90
2021/01/18 19:13:50;;;;;;;9.10;6.60;;;2.20;99.90;;;;;;6143907;23;20841;-92
2021/01/18 19:17:12;;;;;;;7.43;5.23;;;2.20;99.90;;;;;;6152686;23;20471;-94
2021/01/18 19:19:43;;;;;;;7.40;5.30;;;2.30;99.90;;;;;;6064622;23;20447;-95
2021/01/18 19:22:21;;;;;;;10.83;5.80;;;2.20;99.90;;;;;;6172530;23;20400;-96
2021/01/18 19:24:51;;;;;;;5.63;4.27;;;2.20;99.90;;;;;;6158561;23;20437;-95
2021/01/18 19:27:17;;;;;;;5.50;4.70;;;2.20;99.90;;;;;;6155584;23;20708;-94
2021/01/18 19:29:51;;;;;;;10.13;6.70;;;2.20;99.90;;;;;;6152733;23;20443;-93
2021/01/18 19:32:19;;;;;;;17.57;12.97;;;2.20;99.90;;;;;;6151823;23;20636;-95
2021/01/18 19:37:24;;;;;;;6.60;4.50;;;2.20;99.90;;;;;;6185434;23;20391;-95
2021/01/18 19:39:52;;;;;;;19.23;11.20;;;2.20;99.90;;;;;;6108436;23;20712;-90
2021/01/18 19:42:22;;;;;;;5.17;4.27;;;2.20;99.90;;;;;;6161819;23;20396;-95
2021/01/18 19:47:35;;;;;;;4.50;4.10;;;2.10;99.90;;;;;;6205507;23;20384;-96
2021/01/18 19:50:10;;;;;;;5.43;4.93;;;2.10;99.90;;;;;;6159859;23;20504;-96
2021/01/18 19:52:40;;;;;;;4.70;4.20;;;2.10;99.90;;;;;;6151629;23;20725;-91
2021/01/18 19:55:12;;;;;;;4.70;3.70;;;2.10;99.90;;;;;;6155380;23;20427;-95
2021/01/18 19:57:39;;;;;;;4.43;3.73;;;2.10;99.90;;;;;;6147435;23;20426;-93
2021/01/18 20:00:06;;;;;;;5.63;4.33;;;2.10;99.90;;;;;;6144663;23;20457;-94
2021/01/18 20:02:32;;;;;;;4.50;3.90;;;2.10;99.90;;;;;;6149749;23;20832;-94
2021/01/18 20:04:57;;;;;;;5.57;3.30;;;2.00;99.90;;;;;;6149611;23;20423;-93
2021/01/18 20:07:23;;;;;;;4.10;3.70;;;2.00;99.90;;;;;;6140962;23;20164;-86
2021/01/18 20:09:49;;;;;;;7.63;4.43;;;2.00;99.90;;;;;;6138390;23;20713;-85
2021/01/18 20:12:15;;;;;;;4.80;4.30;;;2.00;99.90;;;;;;6134660;23;20558;-82
2021/01/18 20:14:40;;;;;;;9.67;8.77;;;1.90;99.90;;;;;;6135497;23;20808;-84
2021/01/18 20:17:07;;;;;;;6.00;4.77;;;1.90;99.90;;;;;;6138302;23;20172;-84
2021/01/18 20:19:33;;;;;;;6.10;5.00;;;2.00;99.90;;;;;;6136363;23;20534;-83
2021/01/18 20:21:59;;;;;;;8.53;6.30;;;1.90;99.90;;;;;;6136851;23;20407;-84
2021/01/18 20:24:25;;;;;;;10.93;7.77;;;1.90;99.90;;;;;;6138255;23;20176;-85
2021/01/18 20:26:51;;;;;;;9.23;5.20;;;1.90;99.90;;;;;;6137704;23;20396;-84
2021/01/18 20:29:16;;;;;;;4.50;3.90;;;1.80;99.90;;;;;;6139454;23;20200;-84
2021/01/18 20:31:42;;;;;;;5.20;3.60;;;1.80;99.90;;;;;;6140221;23;20458;-84
2021/01/18 20:34:08;;;;;;;5.03;4.33;;;1.80;99.90;;;;;;6139515;23;20526;-84
2021/01/18 20:36:34;;;;;;;9.07;4.60;;;1.80;99.90;;;;;;6140535;23;20176;-82
2021/01/18 20:39:02;;;;;;;4.60;4.07;;;1.80;99.90;;;;;;6140360;23;20410;-83
2021/01/18 20:41:30;;;;;;;5.00;4.33;;;1.80;99.90;;;;;;6139895;23;20793;-83
2021/01/18 20:43:56;;;;;;;7.23;4.80;;;1.70;99.90;;;;;;6140278;23;21134;-82
2021/01/18 20:46:22;;;;;;;8.23;5.00;;;1.70;99.90;;;;;;6141645;23;20434;-83
2021/01/18 20:48:48;;;;;;;6.03;5.43;;;1.70;99.90;;;;;;6139373;23;21024;-83
2021/01/18 20:51:14;;;;;;;5.83;4.70;;;1.70;99.90;;;;;;6142140;23;20167;-84
2021/01/18 20:53:41;;;;;;;7.07;4.80;;;1.70;99.90;;;;;;6144847;23;20407;-84
2021/01/18 20:56:06;;;;;;;6.47;4.60;;;1.70;99.90;;;;;;6141220;23;20482;-87
2021/01/18 20:58:32;;;;;;;4.37;3.97;;;1.70;99.90;;;;;;6146512;23;20485;-87
2021/01/18 21:00:58;;;;;;;5.10;4.53;;;1.70;99.90;;;;;;6147326;23;20180;-86
2021/01/18 21:03:24;;;;;;;5.50;4.27;;;1.70;99.90;;;;;;6144234;23;20164;-85
2021/01/18 21:05:49;;;;;;;8.27;4.93;;;1.70;99.90;;;;;;6146105;23;20490;-84
2021/01/18 21:08:15;;;;;;;5.40;3.87;;;1.60;99.90;;;;;;6146142;23;20614;-85
2021/01/18 21:10:41;;;;;;;4.33;3.40;;;1.60;99.90;;;;;;6145327;23;20522;-85
2021/01/18 21:13:07;;;;;;;4.43;4.00;;;1.60;99.90;;;;;;6144556;23;20357;-85
2021/01/18 21:15:32;;;;;;;5.30;4.70;;;1.60;99.90;;;;;;6144955;23;20164;-86
2021/01/18 21:17:58;;;;;;;5.37;3.77;;;1.60;99.90;;;;;;6145241;23;20876;-87
2021/01/18 21:20:24;;;;;;;7.10;4.10;;;1.60;99.90;;;;;;6146094;23;20176;-87
2021/01/18 21:22:50;;;;;;;5.27;3.67;;;1.70;99.90;;;;;;6143919;23;21144;-86